createdAt,value
2022-10-29T00:01:26.272Z,8.37
2022-10-29T00:03:54.094Z,7.50
2022-10-29T00:06:21.764Z,7.63
2022-10-29T00:08:50.862Z,7.88
2022-10-29T00:11:21.039Z,8.20
2022-10-29T00:13:50.109Z,8.13
2022-10-29T00:16:19.745Z,7.70
2022-10-29T00:18:47.730Z,7.90
2022-10-29T00:21:17.053Z,7.03
2022-10-29T00:23:44.837Z,8.63
2022-10-29T00:26:14.810Z,7.30
2022-10-29T00:28:43.075Z,7.93
2022-10-29T00:31:13.176Z,7.32
2022-10-29T00:33:41.191Z,6.90
2022-10-29T00:36:14.432Z,7.28
2022-10-29T00:38:42.289Z,7.65
2022-10-29T00:41:12.823Z,7.70
2022-10-29T00:43:45.135Z,7.93
2022-10-29T00:46:15.066Z,8.05
2022-10-29T00:48:46.731Z,7.60
2022-10-29T00:51:16.410Z,7.97
2022-10-29T00:53:47.804Z,7.47
2022-10-29T00:56:16.382Z,8.13
2022-10-29T00:58:46.398Z,7.65
2022-10-29T01:01:15.119Z,7.88
2022-10-29T01:03:44.354Z,8.18
2022-10-29T01:06:12.127Z,8.57
2022-10-29T01:08:39.883Z,7.40
2022-10-29T01:11:15.617Z,8.25
2022-10-29T01:14:01.367Z,7.35
2022-10-29T01:16:40.188Z,7.13
2022-10-29T01:19:15.484Z,7.40
2022-10-29T01:21:46.276Z,7.25
2022-10-29T01:25:03.829Z,7.30
2022-10-29T01:27:56.647Z,6.65
2022-10-29T01:30:40.777Z,7.03
2022-10-29T01:33:17.150Z,6.82
2022-10-29T01:35:51.654Z,7.05
2022-10-29T01:38:26.374Z,7.32
2022-10-29T01:41:02.102Z,7.15
2022-10-29T01:43:35.916Z,6.45
2022-10-29T01:46:09.860Z,7.35
2022-10-29T01:48:43.565Z,6.95
2022-10-29T01:51:19.215Z,7.22
2022-10-29T01:53:47.445Z,7.20
2022-10-29T01:56:15.234Z,7.18
2022-10-29T01:58:48.319Z,6.60
2022-10-29T02:01:31.408Z,6.07
2022-10-29T02:04:13.876Z,7.20
2022-10-29T02:06:49.897Z,7.40
2022-10-29T02:09:28.122Z,6.70
2022-10-29T02:12:03.208Z,7.13
2022-10-29T02:14:34.959Z,7.50
2022-10-29T02:17:03.966Z,6.82
2022-10-29T02:19:34.915Z,7.20
2022-10-29T02:22:02.728Z,8.00
2022-10-29T02:24:30.507Z,7.47
2022-10-29T02:26:58.258Z,7.47
2022-10-29T02:29:26.014Z,8.32
2022-10-29T02:31:53.677Z,7.50
2022-10-29T02:34:21.364Z,7.13
2022-10-29T02:36:50.428Z,8.02
2022-10-29T02:39:18.539Z,7.72
2022-10-29T02:41:46.308Z,7.35
2022-10-29T02:44:13.978Z,7.30
2022-10-29T02:46:41.960Z,7.60
2022-10-29T02:49:09.684Z,7.38
2022-10-29T02:51:37.801Z,6.63
2022-10-29T02:54:07.063Z,7.05
2022-10-29T02:56:34.766Z,7.32
2022-10-29T02:59:04.285Z,7.47
2022-10-29T03:01:34.434Z,7.45
2022-10-29T03:04:02.200Z,6.97
2022-10-29T03:06:29.890Z,7.15
2022-10-29T03:08:57.638Z,6.28
2022-10-29T03:11:26.671Z,7.30
2022-10-29T03:13:54.381Z,7.18
2022-10-29T03:16:22.045Z,6.60
2022-10-29T03:18:49.814Z,7.57
2022-10-29T03:21:17.538Z,8.50
2022-10-29T03:23:45.257Z,6.97
2022-10-29T03:26:12.943Z,7.97
2022-10-29T03:28:42.041Z,7.20
2022-10-29T03:31:09.882Z,7.97
2022-10-29T03:33:37.643Z,7.50
2022-10-29T03:36:07.175Z,7.68
2022-10-29T03:38:35.369Z,8.07
2022-10-29T03:41:08.545Z,8.40
2022-10-29T03:43:36.584Z,8.48
2022-10-29T03:46:06.025Z,7.20
2022-10-29T03:48:34.460Z,7.55
2022-10-29T03:51:05.825Z,6.57
2022-10-29T03:53:34.914Z,8.40
2022-10-29T03:56:03.216Z,7.40
2022-10-29T03:58:30.987Z,7.05
2022-10-29T04:01:00.541Z,7.20
2022-10-29T04:03:31.248Z,7.30
2022-10-29T04:06:00.362Z,6.75
2022-10-29T04:08:28.333Z,7.23
2022-10-29T04:10:56.154Z,7.30
2022-10-29T04:13:23.879Z,6.90
2022-10-29T04:15:55.651Z,7.00
2022-10-29T04:18:23.450Z,7.40
2022-10-29T04:32:12.581Z,6.63
2022-10-29T04:34:40.341Z,6.90
2022-10-29T04:37:09.391Z,6.47
2022-10-29T04:39:37.135Z,7.43
2022-10-29T04:42:04.865Z,7.20
2022-10-29T04:44:32.541Z,6.88
2022-10-29T04:47:00.273Z,7.05
2022-10-29T04:49:28.158Z,6.95
2022-10-29T04:51:55.893Z,7.43
2022-10-29T04:54:24.986Z,7.28
2022-10-29T04:56:52.671Z,6.85
2022-10-29T04:59:20.383Z,6.97
2022-10-29T05:01:48.098Z,7.13
2022-10-29T05:04:15.828Z,7.22
2022-10-29T05:06:43.652Z,6.50
2022-10-29T05:09:11.756Z,7.47
2022-10-29T05:11:41.144Z,6.82
2022-10-29T05:14:08.959Z,6.90
2022-10-29T05:16:36.652Z,7.43
2022-10-29T05:19:05.901Z,7.53
2022-10-29T05:21:33.743Z,6.88
2022-10-29T05:24:01.639Z,6.72
2022-10-29T05:26:32.025Z,6.20
2022-10-29T05:29:01.148Z,6.38
2022-10-29T05:31:28.886Z,6.45
2022-10-29T05:33:56.741Z,6.75
2022-10-29T05:36:24.511Z,7.50
2022-10-29T05:38:52.316Z,6.57
2022-10-29T05:41:20.121Z,6.63
2022-10-29T05:43:49.817Z,7.35
2022-10-29T05:46:18.988Z,6.35
2022-10-29T05:48:49.014Z,7.45
2022-10-29T05:51:16.974Z,7.07
2022-10-29T05:53:44.758Z,7.15
2022-10-29T05:56:12.561Z,7.45
2022-10-29T05:58:40.369Z,7.20
2022-10-29T06:01:09.310Z,8.10
2022-10-29T06:03:39.038Z,7.93
2022-10-29T06:06:07.310Z,9.13
2022-10-29T06:08:35.460Z,15.73
2022-10-29T06:11:04.311Z,16.30
2022-10-29T06:13:32.257Z,14.98
2022-10-29T06:16:01.259Z,11.02
2022-10-29T06:18:29.358Z,10.00
2022-10-29T06:21:00.955Z,7.90
2022-10-29T06:23:34.193Z,6.97
2022-10-29T06:26:03.393Z,7.90
2022-10-29T06:28:34.726Z,6.80
2022-10-29T06:31:05.758Z,8.35
2022-10-29T06:33:33.553Z,9.02
2022-10-29T06:36:02.672Z,7.72
2022-10-29T06:38:30.408Z,8.23
2022-10-29T06:40:58.195Z,7.07
2022-10-29T06:43:25.962Z,6.97
2022-10-29T06:45:54.024Z,6.20
2022-10-29T06:48:24.090Z,6.80
2022-10-29T06:50:52.263Z,6.32
2022-10-29T06:53:21.639Z,6.35
2022-10-29T06:55:49.467Z,6.78
2022-10-29T06:58:19.088Z,6.05
2022-10-29T07:00:47.642Z,6.63
2022-10-29T07:03:16.897Z,6.82
2022-10-29T07:05:44.948Z,6.65
2022-10-29T07:08:13.496Z,6.95
2022-10-29T07:10:42.937Z,7.70
2022-10-29T07:13:13.669Z,7.07
2022-10-29T07:15:41.445Z,8.07
2022-10-29T07:18:10.846Z,7.65
2022-10-29T07:20:40.834Z,7.85
2022-10-29T07:23:09.483Z,7.10
2022-10-29T07:25:38.764Z,6.82
2022-10-29T07:28:12.274Z,7.00
2022-10-29T07:30:40.426Z,6.88
2022-10-29T07:33:08.687Z,7.43
2022-10-29T07:35:37.078Z,6.75
2022-10-29T07:38:09.060Z,7.38
2022-10-29T07:40:38.948Z,8.90
2022-10-29T07:43:08.110Z,13.17
2022-10-29T07:45:35.873Z,19.38
2022-10-29T07:48:07.458Z,22.15
2022-10-29T07:50:35.288Z,23.55
2022-10-29T07:53:04.165Z,23.65
2022-10-29T07:55:32.326Z,13.87
2022-10-29T07:58:02.412Z,7.88
2022-10-29T08:00:32.423Z,7.95
2022-10-29T08:03:00.260Z,7.03
2022-10-29T08:05:29.838Z,6.65
2022-10-29T08:07:58.503Z,6.90
2022-10-29T08:10:27.161Z,6.90
2022-10-29T08:12:57.146Z,7.43
2022-10-29T08:15:26.117Z,6.75
2022-10-29T08:17:55.334Z,6.88
2022-10-29T08:20:24.159Z,6.13
2022-10-29T08:22:51.892Z,6.30
2022-10-29T08:25:19.957Z,6.30
2022-10-29T08:27:58.437Z,5.93
2022-10-29T08:30:26.159Z,6.32
2022-10-29T08:32:55.584Z,7.53
2022-10-29T08:35:23.861Z,7.57
2022-10-29T08:37:51.655Z,7.25
2022-10-29T08:40:29.311Z,6.55
2022-10-29T08:43:19.367Z,6.18
2022-10-29T08:45:49.212Z,5.80
2022-10-29T08:48:37.517Z,6.95
2022-10-29T08:51:14.528Z,8.70
2022-10-29T08:53:45.513Z,7.20
2022-10-29T08:56:24.132Z,6.47
2022-10-29T08:58:58.386Z,7.30
2022-10-29T09:01:26.446Z,6.80
2022-10-29T09:03:56.078Z,6.25
2022-10-29T09:06:29.961Z,6.22
2022-10-29T09:09:24.841Z,6.05
2022-10-29T09:12:05.593Z,6.38
2022-10-29T09:14:45.976Z,5.80
2022-10-29T09:17:28.166Z,7.63
2022-10-29T09:20:17.898Z,5.80
2022-10-29T09:22:54.873Z,6.85
2022-10-29T09:25:27.717Z,6.10
2022-10-29T09:28:08.866Z,5.95
2022-10-29T09:30:45.003Z,6.47
2022-10-29T09:33:18.078Z,6.40
2022-10-29T09:35:50.310Z,6.40
2022-10-29T09:38:22.194Z,6.60
2022-10-29T09:40:50.123Z,6.30
2022-10-29T09:43:34.422Z,6.40
2022-10-29T09:46:09.798Z,5.72
2022-10-29T09:48:41.887Z,6.45
2022-10-29T09:51:21.849Z,5.43
2022-10-29T09:53:51.115Z,5.75
2022-10-29T09:56:19.549Z,5.78
2022-10-29T09:58:54.130Z,6.50
2022-10-29T10:01:22.301Z,5.30
2022-10-29T10:03:55.991Z,5.93
2022-10-29T10:06:25.094Z,5.60
2022-10-29T10:09:04.574Z,5.90
2022-10-29T10:11:38.800Z,6.07
2022-10-29T10:14:15.468Z,5.78
2022-10-29T10:16:44.017Z,5.47
2022-10-29T10:19:30.387Z,6.05
2022-10-29T10:22:01.439Z,5.95
2022-10-29T10:24:32.299Z,6.10
2022-10-29T10:27:00.827Z,5.80
2022-10-29T10:29:29.854Z,5.78
2022-10-29T10:32:16.626Z,6.22
2022-10-29T10:34:45.808Z,6.20
2022-10-29T10:37:21.374Z,6.88
2022-10-29T10:39:53.613Z,6.00
2022-10-29T10:42:24.781Z,6.03
2022-10-29T10:44:57.915Z,5.30
2022-10-29T10:47:30.620Z,5.82
2022-10-29T10:50:14.774Z,6.07
2022-10-29T10:52:47.723Z,5.78
2022-10-29T10:55:24.287Z,5.22
2022-10-29T10:58:00.401Z,5.38
2022-10-29T11:00:32.266Z,6.32
2022-10-29T11:03:06.003Z,5.82
2022-10-29T11:05:36.522Z,5.03
2022-10-29T11:08:13.495Z,4.65
2022-10-29T11:10:48.953Z,5.63
2022-10-29T11:13:19.051Z,6.25
2022-10-29T11:15:53.130Z,5.78
2022-10-29T11:18:25.864Z,5.97
2022-10-29T11:21:04.215Z,5.40
2022-10-29T11:23:44.052Z,6.82
2022-10-29T11:26:17.005Z,5.13
2022-10-29T11:28:49.763Z,5.60
2022-10-29T11:31:23.680Z,5.25
2022-10-29T11:33:59.624Z,4.85
2022-10-29T11:36:32.309Z,5.50
2022-10-29T11:39:08.318Z,5.20
2022-10-29T11:41:45.107Z,6.53
2022-10-29T11:44:13.981Z,5.47
2022-10-29T11:46:53.406Z,5.40
2022-10-29T11:49:40.040Z,5.78
2022-10-29T11:52:12.074Z,5.95
2022-10-29T11:55:00.414Z,5.82
2022-10-29T11:57:36.617Z,6.28
2022-10-29T12:00:12.023Z,5.60
2022-10-29T12:03:27.007Z,6.18
2022-10-29T12:06:05.098Z,5.80
2022-10-29T12:08:49.586Z,5.57
2022-10-29T12:11:26.990Z,5.32
2022-10-29T12:14:08.642Z,5.72
2022-10-29T12:16:50.374Z,5.18
2022-10-29T12:19:32.434Z,5.40
2022-10-29T12:22:12.375Z,5.53
2022-10-29T12:24:53.867Z,5.38
2022-10-29T12:27:32.070Z,5.93
2022-10-29T12:30:03.900Z,5.78
2022-10-29T12:32:38.971Z,5.30
2022-10-29T12:35:17.557Z,5.32
2022-10-29T12:37:59.050Z,5.13
2022-10-29T12:40:32.382Z,5.20
2022-10-29T12:43:07.162Z,6.85
2022-10-29T12:46:06.454Z,5.80
2022-10-29T12:48:40.013Z,5.63
2022-10-29T12:51:17.041Z,7.65
2022-10-29T12:54:03.610Z,11.40
2022-10-29T12:56:32.887Z,7.78
2022-10-29T12:59:32.348Z,6.22
2022-10-29T13:02:19.824Z,5.22
2022-10-29T13:05:33.658Z,5.18
2022-10-29T13:08:22.064Z,5.70
2022-10-29T13:10:56.088Z,5.55
2022-10-29T13:13:37.736Z,5.38
2022-10-29T13:16:14.156Z,5.07
2022-10-29T13:18:52.879Z,6.32
2022-10-29T13:22:01.033Z,5.97
2022-10-29T13:24:30.470Z,7.00
2022-10-29T13:27:01.521Z,6.00
2022-10-29T13:29:46.690Z,6.85
2022-10-29T13:32:32.576Z,5.90
2022-10-29T13:35:01.809Z,5.78
2022-10-29T13:38:02.834Z,7.95
2022-10-29T13:41:14.438Z,9.18
2022-10-29T13:43:45.151Z,6.80
2022-10-29T13:46:36.826Z,5.78
2022-10-29T13:49:13.483Z,5.05
2022-10-29T13:51:51.750Z,5.60
2022-10-29T13:54:31.454Z,5.60
2022-10-29T13:57:01.297Z,6.35
2022-10-29T13:59:42.804Z,6.47
2022-10-29T14:02:21.725Z,6.25
2022-10-29T14:04:55.842Z,5.70
2022-10-29T14:07:29.930Z,6.20
2022-10-29T14:10:03.614Z,5.75
2022-10-29T14:12:33.881Z,5.22
2022-10-29T14:15:11.278Z,5.93
2022-10-29T14:17:39.819Z,5.60
2022-10-29T14:20:21.369Z,4.93
2022-10-29T14:22:49.085Z,5.55
2022-10-29T14:25:35.671Z,4.97
2022-10-29T14:28:18.298Z,5.03
2022-10-29T14:30:47.302Z,5.18
2022-10-29T14:33:20.224Z,5.50
2022-10-29T14:35:49.826Z,6.97
2022-10-29T14:38:18.821Z,6.53
2022-10-29T14:40:47.700Z,6.93
2022-10-29T14:43:25.118Z,5.63
2022-10-29T14:45:53.249Z,5.20
2022-10-29T14:48:21.335Z,5.68
2022-10-29T14:50:56.759Z,5.85
2022-10-29T14:53:30.873Z,6.00
2022-10-29T14:56:04.369Z,5.28
2022-10-29T14:58:34.773Z,4.68
2022-10-29T15:01:05.835Z,6.07
2022-10-29T15:03:35.788Z,6.40
2022-10-29T15:06:26.178Z,5.85
2022-10-29T15:08:57.867Z,5.82
2022-10-29T15:11:34.193Z,5.95
2022-10-29T15:14:02.111Z,6.60
2022-10-29T15:16:31.182Z,6.60
2022-10-29T15:19:00.896Z,6.72
2022-10-29T15:21:32.973Z,7.60
2022-10-29T15:24:06.436Z,6.50
2022-10-29T15:26:37.428Z,6.28
2022-10-29T15:29:11.593Z,6.35
2022-10-29T15:31:45.599Z,5.88
2022-10-29T15:34:27.280Z,6.20
2022-10-29T15:36:57.867Z,6.97
2022-10-29T15:39:30.471Z,7.22
2022-10-29T15:42:00.774Z,6.55
2022-10-29T15:44:39.721Z,6.28
2022-10-29T15:47:21.661Z,5.63
2022-10-29T15:49:49.391Z,6.25
2022-10-29T15:52:21.219Z,7.45
2022-10-29T15:54:49.014Z,5.88
2022-10-29T15:57:17.746Z,5.82
2022-10-29T15:59:45.549Z,6.32
2022-10-29T16:02:14.644Z,6.30
2022-10-29T16:04:43.753Z,6.75
2022-10-29T16:07:13.694Z,7.43
2022-10-29T16:09:46.179Z,7.40
2022-10-29T16:12:14.185Z,6.65
2022-10-29T16:14:41.893Z,6.68
2022-10-29T16:17:14.523Z,6.63
2022-10-29T16:19:42.306Z,6.68
2022-10-29T16:22:15.035Z,6.28
2022-10-29T16:24:44.322Z,6.95
2022-10-29T16:27:16.931Z,6.78
2022-10-29T16:29:46.979Z,7.45
2022-10-29T16:32:16.883Z,6.20
2022-10-29T16:34:45.071Z,6.65
2022-10-29T16:37:14.348Z,6.18
2022-10-29T16:39:42.164Z,7.15
2022-10-29T16:42:29.126Z,8.15
2022-10-29T16:44:57.147Z,6.57
2022-10-29T16:47:25.135Z,6.72
2022-10-29T16:49:52.932Z,6.82
2022-10-29T16:52:24.091Z,6.50
2022-10-29T16:54:54.097Z,6.85
2022-10-29T16:57:23.700Z,6.82
2022-10-29T16:59:51.525Z,6.55
2022-10-29T17:02:19.234Z,6.30
2022-10-29T17:04:47.024Z,6.93
2022-10-29T17:07:14.770Z,7.35
2022-10-29T17:09:42.502Z,6.72
2022-10-29T17:12:10.258Z,7.05
2022-10-29T17:14:39.605Z,6.97
2022-10-29T17:17:07.406Z,6.78
2022-10-29T17:19:35.131Z,7.68
2022-10-29T17:22:04.185Z,7.15
2022-10-29T17:24:31.911Z,6.60
2022-10-29T17:26:59.939Z,6.65
2022-10-29T17:29:28.166Z,6.50
2022-10-29T17:31:58.540Z,6.93
2022-10-29T17:34:26.404Z,6.80
2022-10-29T17:36:54.105Z,6.43
2022-10-29T17:39:22.166Z,7.28
2022-10-29T17:41:50.619Z,6.90
2022-10-29T17:44:18.465Z,6.45
2022-10-29T17:46:46.297Z,7.03
2022-10-29T17:49:15.367Z,7.13
2022-10-29T17:51:43.058Z,6.40
2022-10-29T17:54:13.408Z,6.63
2022-10-29T17:56:41.317Z,5.90
2022-10-29T17:59:09.062Z,6.97
2022-10-29T18:01:36.905Z,6.15
2022-10-29T18:04:06.254Z,6.57
2022-10-29T18:06:35.268Z,6.97
2022-10-29T18:09:02.934Z,6.07
2022-10-29T18:11:31.130Z,6.90
2022-10-29T18:13:59.463Z,6.22
2022-10-29T18:16:29.744Z,6.65
2022-10-29T18:19:02.793Z,6.95
2022-10-29T18:21:32.440Z,6.90
2022-10-29T18:24:01.565Z,7.97
2022-10-29T18:26:31.033Z,7.57
2022-10-29T18:29:00.657Z,7.95
2022-10-29T18:31:30.495Z,8.57
2022-10-29T18:33:59.084Z,8.57
2022-10-29T18:36:27.355Z,9.15
2022-10-29T18:38:56.176Z,9.25
2022-10-29T18:41:26.056Z,9.60
2022-10-29T18:43:54.432Z,8.73
2022-10-29T18:46:22.616Z,8.60
2022-10-29T18:48:50.697Z,8.10
2022-10-29T18:51:19.616Z,7.93
2022-10-29T18:53:47.617Z,8.13
2022-10-29T18:56:17.926Z,7.33
2022-10-29T18:58:47.223Z,7.73
2022-10-29T19:01:17.104Z,8.00
2022-10-29T19:03:45.475Z,7.87
2022-10-29T19:06:14.650Z,7.27
2022-10-29T19:08:43.874Z,7.67
2022-10-29T19:11:15.040Z,7.70
2022-10-29T19:13:43.278Z,7.10
2022-10-29T19:16:14.975Z,7.27
2022-10-29T19:18:42.717Z,7.60
2022-10-29T19:21:12.199Z,7.03
2022-10-29T19:23:40.444Z,7.20
2022-10-29T19:26:10.783Z,6.40
2022-10-29T19:28:39.864Z,7.10
2022-10-29T19:31:09.473Z,5.83
2022-10-29T19:33:39.322Z,6.15
2022-10-29T19:36:09.488Z,6.35
2022-10-29T19:38:37.270Z,6.23
2022-10-29T19:41:05.028Z,6.03
2022-10-29T19:43:32.951Z,6.45
2022-10-29T19:46:00.655Z,5.87
2022-10-29T19:48:28.319Z,6.07
2022-10-29T19:50:57.397Z,6.43
2022-10-29T19:53:27.338Z,6.10
2022-10-29T19:55:55.258Z,5.77
2022-10-29T19:58:24.528Z,6.00
2022-10-29T20:00:52.470Z,6.97
2022-10-29T20:03:20.558Z,7.00
2022-10-29T20:05:48.292Z,6.40
2022-10-29T20:08:17.402Z,6.33
2022-10-29T20:10:45.464Z,5.93
2022-10-29T20:13:13.169Z,5.90
2022-10-29T20:15:40.975Z,5.80
2022-10-29T20:18:08.644Z,6.67
2022-10-29T20:20:36.374Z,6.20
2022-10-29T20:23:04.082Z,5.63
2022-10-29T20:25:33.155Z,7.22
2022-10-29T20:28:01.806Z,5.97
2022-10-29T20:30:29.755Z,6.50
2022-10-29T20:32:58.129Z,5.60
2022-10-29T20:35:26.053Z,6.13
2022-10-29T20:37:53.799Z,6.10
2022-10-29T20:40:21.475Z,6.20
2022-10-29T20:42:51.751Z,6.13
2022-10-29T20:45:20.616Z,6.03
2022-10-29T20:47:48.280Z,6.63
2022-10-29T20:50:16.182Z,6.10
2022-10-29T20:52:48.325Z,5.93
2022-10-29T20:55:16.701Z,5.90
2022-10-29T20:57:44.452Z,6.20
2022-10-29T21:00:14.736Z,5.63
2022-10-29T21:02:42.514Z,5.43
2022-10-29T21:05:10.459Z,5.85
2022-10-29T21:07:40.238Z,5.53
2022-10-29T21:10:09.328Z,5.75
2022-10-29T21:12:37.242Z,6.45
2022-10-29T21:15:05.650Z,5.93
2022-10-29T21:17:35.416Z,5.83
2022-10-29T21:20:03.258Z,5.93
2022-10-29T21:22:31.095Z,5.67
2022-10-29T21:24:58.859Z,5.68
2022-10-29T21:27:26.976Z,5.93
2022-10-29T21:29:54.737Z,5.77
2022-10-29T21:32:22.443Z,7.03
2022-10-29T21:34:51.797Z,6.18
2022-10-29T21:37:19.552Z,5.78
2022-10-29T21:39:47.310Z,5.75
2022-10-29T21:42:15.046Z,6.05
2022-10-29T21:44:42.752Z,6.10
2022-10-29T21:47:10.483Z,6.22
2022-10-29T21:49:38.183Z,5.60
2022-10-29T21:52:07.530Z,6.15
2022-10-29T21:54:35.656Z,5.70
2022-10-29T21:57:03.385Z,5.70
2022-10-29T21:59:31.100Z,5.82
2022-10-29T22:01:59.479Z,5.28
2022-10-29T22:04:27.490Z,5.60
2022-10-29T22:06:55.846Z,6.10
2022-10-29T22:09:24.972Z,5.97
2022-10-29T22:11:52.705Z,6.00
2022-10-29T22:14:20.575Z,5.23
2022-10-29T22:16:48.283Z,6.60
2022-10-29T22:19:15.980Z,5.88
2022-10-29T22:21:45.182Z,5.68
2022-10-29T22:24:13.044Z,5.55
2022-10-29T22:26:42.125Z,5.75
2022-10-29T22:29:10.226Z,5.80
2022-10-29T22:31:37.960Z,5.57
2022-10-29T22:34:05.943Z,5.75
2022-10-29T22:36:33.665Z,5.60
2022-10-29T22:39:02.174Z,5.97
2022-10-29T22:41:30.717Z,6.25
2022-10-29T22:44:00.749Z,6.22
2022-10-29T22:46:29.891Z,5.45
2022-10-29T22:48:57.983Z,6.07
2022-10-29T22:51:27.059Z,6.03
2022-10-29T22:53:55.190Z,5.60
2022-10-29T22:56:25.179Z,5.97
2022-10-29T22:58:53.372Z,5.93
2022-10-29T23:01:31.496Z,5.68
2022-10-29T23:03:59.960Z,5.32
2022-10-29T23:06:28.422Z,5.80
2022-10-29T23:08:58.473Z,5.75
2022-10-29T23:11:28.258Z,5.75
2022-10-29T23:13:57.534Z,6.60
2022-10-29T23:16:27.190Z,6.18
2022-10-29T23:18:58.392Z,5.80
2022-10-29T23:21:26.316Z,6.57
2022-10-29T23:23:54.497Z,6.93
2022-10-29T23:26:24.065Z,6.43
2022-10-29T23:28:52.131Z,7.50
2022-10-29T23:31:21.666Z,6.83
2022-10-29T23:33:50.945Z,7.07
2022-10-29T23:36:21.951Z,7.23
2022-10-29T23:38:54.628Z,7.17
2022-10-29T23:41:22.368Z,7.13
2022-10-29T23:43:50.125Z,7.03
2022-10-29T23:46:18.017Z,6.80
2022-10-29T23:48:45.870Z,6.30
2022-10-29T23:51:13.626Z,6.77
2022-10-29T23:53:42.722Z,6.73
2022-10-29T23:56:10.386Z,7.00
2022-10-29T23:58:38.147Z,5.77
